sensor_id;sensor_type;location;lat;lon;timestamp;P1;durP1;ratioP1;P2;durP2;ratioP2
15831;SDS011;8016;49.928;9.372;2022-12-07T00:00:48;12.93;;;10.50;;
15831;SDS011;8016;49.928;9.372;2022-12-07T00:03:14;11.40;;;8.93;;
15831;SDS011;8016;49.928;9.372;2022-12-07T00:05:40;11.10;;;8.50;;
15831;SDS011;8016;49.928;9.372;2022-12-07T00:08:06;10.17;;;8.40;;
15831;SDS011;8016;49.928;9.372;2022-12-07T00:10:35;10.33;;;8.30;;
15831;SDS011;8016;49.928;9.372;2022-12-07T00:13:01;11.93;;;9.33;;
15831;SDS011;8016;49.928;9.372;2022-12-07T00:15:27;11.20;;;9.27;;
15831;SDS011;8016;49.928;9.372;2022-12-07T00:17:53;13.37;;;9.97;;
15831;SDS011;8016;49.928;9.372;2022-12-07T00:20:19;12.97;;;8.43;;
15831;SDS011;8016;49.928;9.372;2022-12-07T00:22:45;11.87;;;9.50;;
15831;SDS011;8016;49.928;9.372;2022-12-07T00:25:10;15.60;;;10.33;;
15831;SDS011;8016;49.928;9.372;2022-12-07T00:27:36;21.77;;;14.10;;
15831;SDS011;8016;49.928;9.372;2022-12-07T00:30:02;23.00;;;14.20;;
15831;SDS011;8016;49.928;9.372;2022-12-07T00:32:28;30.70;;;19.57;;
15831;SDS011;8016;49.928;9.372;2022-12-07T00:34:54;21.20;;;12.73;;
15831;SDS011;8016;49.928;9.372;2022-12-07T00:37:20;15.50;;;10.33;;
15831;SDS011;8016;49.928;9.372;2022-12-07T00:39:46;15.20;;;11.23;;
15831;SDS011;8016;49.928;9.372;2022-12-07T00:42:12;23.53;;;16.97;;
15831;SDS011;8016;49.928;9.372;2022-12-07T00:44:38;22.30;;;14.50;;
15831;SDS011;8016;49.928;9.372;2022-12-07T00:47:04;16.23;;;10.97;;
15831;SDS011;8016;49.928;9.372;2022-12-07T00:49:30;14.73;;;10.97;;
15831;SDS011;8016;49.928;9.372;2022-12-07T00:51:56;17.33;;;11.03;;
15831;SDS011;8016;49.928;9.372;2022-12-07T00:54:22;14.03;;;10.93;;
15831;SDS011;8016;49.928;9.372;2022-12-07T00:56:48;17.03;;;12.23;;
15831;SDS011;8016;49.928;9.372;2022-12-07T00:59:14;14.47;;;11.70;;
15831;SDS011;8016;49.928;9.372;2022-12-07T01:01:40;15.60;;;11.70;;
15831;SDS011;8016;49.928;9.372;2022-12-07T01:04:06;18.67;;;13.17;;
15831;SDS011;8016;49.928;9.372;2022-12-07T01:06:32;22.47;;;15.00;;
15831;SDS011;8016;49.928;9.372;2022-12-07T01:08:58;16.73;;;11.77;;
15831;SDS011;8016;49.928;9.372;2022-12-07T01:11:26;13.27;;;9.40;;
15831;SDS011;8016;49.928;9.372;2022-12-07T01:13:53;15.20;;;9.60;;
15831;SDS011;8016;49.928;9.372;2022-12-07T01:16:20;43.93;;;27.10;;
15831;SDS011;8016;49.928;9.372;2022-12-07T01:18:46;30.83;;;20.17;;
15831;SDS011;8016;49.928;9.372;2022-12-07T01:21:14;25.23;;;17.30;;
15831;SDS011;8016;49.928;9.372;2022-12-07T01:23:40;18.83;;;13.00;;
15831;SDS011;8016;49.928;9.372;2022-12-07T01:26:09;14.57;;;11.23;;
15831;SDS011;8016;49.928;9.372;2022-12-07T01:28:36;19.10;;;12.57;;
15831;SDS011;8016;49.928;9.372;2022-12-07T01:31:06;15.27;;;13.00;;
15831;SDS011;8016;49.928;9.372;2022-12-07T01:33:33;17.97;;;14.53;;
15831;SDS011;8016;49.928;9.372;2022-12-07T01:36:03;18.17;;;14.50;;
15831;SDS011;8016;49.928;9.372;2022-12-07T01:38:30;18.30;;;14.10;;
15831;SDS011;8016;49.928;9.372;2022-12-07T01:40:56;19.50;;;14.70;;
15831;SDS011;8016;49.928;9.372;2022-12-07T01:43:22;17.43;;;14.17;;
15831;SDS011;8016;49.928;9.372;2022-12-07T01:45:49;18.90;;;13.97;;
15831;SDS011;8016;49.928;9.372;2022-12-07T01:48:16;15.77;;;12.77;;
15831;SDS011;8016;49.928;9.372;2022-12-07T01:50:43;17.47;;;12.80;;
15831;SDS011;8016;49.928;9.372;2022-12-07T01:53:10;18.13;;;13.53;;
15831;SDS011;8016;49.928;9.372;2022-12-07T01:55:37;15.10;;;12.53;;
15831;SDS011;8016;49.928;9.372;2022-12-07T01:58:04;16.00;;;12.60;;
15831;SDS011;8016;49.928;9.372;2022-12-07T02:00:30;15.53;;;12.80;;
15831;SDS011;8016;49.928;9.372;2022-12-07T02:05:23;17.00;;;13.23;;
15831;SDS011;8016;49.928;9.372;2022-12-07T02:07:49;15.17;;;12.60;;
15831;SDS011;8016;49.928;9.372;2022-12-07T02:10:24;15.37;;;12.50;;
15831;SDS011;8016;49.928;9.372;2022-12-07T02:12:52;15.47;;;12.60;;
15831;SDS011;8016;49.928;9.372;2022-12-07T02:15:20;17.20;;;11.57;;
15831;SDS011;8016;49.928;9.372;2022-12-07T02:17:50;16.60;;;12.07;;
15831;SDS011;8016;49.928;9.372;2022-12-07T02:20:28;16.00;;;12.80;;
15831;SDS011;8016;49.928;9.372;2022-12-07T02:23:29;15.07;;;12.20;;
15831;SDS011;8016;49.928;9.372;2022-12-07T02:28:37;16.07;;;13.30;;
15831;SDS011;8016;49.928;9.372;2022-12-07T02:31:11;14.83;;;12.00;;
15831;SDS011;8016;49.928;9.372;2022-12-07T02:33:41;16.67;;;13.57;;
15831;SDS011;8016;49.928;9.372;2022-12-07T02:36:28;18.57;;;13.47;;
15831;SDS011;8016;49.928;9.372;2022-12-07T02:38:58;15.83;;;12.20;;
15831;SDS011;8016;49.928;9.372;2022-12-07T02:41:40;19.67;;;13.83;;
15831;SDS011;8016;49.928;9.372;2022-12-07T02:44:10;16.20;;;13.20;;
15831;SDS011;8016;49.928;9.372;2022-12-07T02:46:42;14.77;;;12.17;;
15831;SDS011;8016;49.928;9.372;2022-12-07T02:49:08;15.20;;;12.17;;
15831;SDS011;8016;49.928;9.372;2022-12-07T02:51:38;15.77;;;12.93;;
15831;SDS011;8016;49.928;9.372;2022-12-07T02:54:08;16.97;;;13.27;;
15831;SDS011;8016;49.928;9.372;2022-12-07T03:04:16;15.40;;;11.90;;
15831;SDS011;8016;49.928;9.372;2022-12-07T03:06:49;15.67;;;11.80;;
15831;SDS011;8016;49.928;9.372;2022-12-07T03:09:22;15.03;;;11.57;;
15831;SDS011;8016;49.928;9.372;2022-12-07T03:11:55;13.23;;;11.63;;
15831;SDS011;8016;49.928;9.372;2022-12-07T03:14:29;14.37;;;11.87;;
15831;SDS011;8016;49.928;9.372;2022-12-07T03:17:05;15.33;;;11.40;;
15831;SDS011;8016;49.928;9.372;2022-12-07T03:19:32;15.77;;;11.87;;
15831;SDS011;8016;49.928;9.372;2022-12-07T03:22:08;15.77;;;11.17;;
15831;SDS011;8016;49.928;9.372;2022-12-07T03:24:40;13.63;;;11.43;;
15831;SDS011;8016;49.928;9.372;2022-12-07T03:27:15;12.67;;;10.43;;
15831;SDS011;8016;49.928;9.372;2022-12-07T03:29:43;13.33;;;10.13;;
15831;SDS011;8016;49.928;9.372;2022-12-07T03:32:16;12.67;;;10.93;;
15831;SDS011;8016;49.928;9.372;2022-12-07T03:34:53;17.27;;;11.40;;
15831;SDS011;8016;49.928;9.372;2022-12-07T03:37:29;16.20;;;11.80;;
15831;SDS011;8016;49.928;9.372;2022-12-07T03:42:23;13.70;;;11.10;;
15831;SDS011;8016;49.928;9.372;2022-12-07T03:44:49;14.77;;;11.23;;
15831;SDS011;8016;49.928;9.372;2022-12-07T03:47:17;15.40;;;12.03;;
15831;SDS011;8016;49.928;9.372;2022-12-07T03:49:54;15.37;;;12.13;;
15831;SDS011;8016;49.928;9.372;2022-12-07T03:57:25;18.13;;;12.83;;
15831;SDS011;8016;49.928;9.372;2022-12-07T03:59:53;16.93;;;12.77;;
15831;SDS011;8016;49.928;9.372;2022-12-07T04:02:20;13.93;;;11.40;;
15831;SDS011;8016;49.928;9.372;2022-12-07T04:04:46;14.67;;;11.57;;
15831;SDS011;8016;49.928;9.372;2022-12-07T04:07:12;13.57;;;11.57;;
15831;SDS011;8016;49.928;9.372;2022-12-07T04:09:38;15.57;;;12.07;;
15831;SDS011;8016;49.928;9.372;2022-12-07T04:12:04;15.73;;;12.27;;
15831;SDS011;8016;49.928;9.372;2022-12-07T04:14:30;15.60;;;12.37;;
15831;SDS011;8016;49.928;9.372;2022-12-07T04:16:56;15.53;;;11.47;;
15831;SDS011;8016;49.928;9.372;2022-12-07T04:19:23;15.70;;;11.57;;
15831;SDS011;8016;49.928;9.372;2022-12-07T04:21:50;16.23;;;12.23;;
15831;SDS011;8016;49.928;9.372;2022-12-07T04:24:16;13.23;;;11.13;;
15831;SDS011;8016;49.928;9.372;2022-12-07T04:26:42;14.17;;;11.67;;
15831;SDS011;8016;49.928;9.372;2022-12-07T04:29:08;13.90;;;11.13;;
15831;SDS011;8016;49.928;9.372;2022-12-07T04:31:35;16.93;;;12.57;;
15831;SDS011;8016;49.928;9.372;2022-12-07T04:34:01;16.97;;;12.43;;
15831;SDS011;8016;49.928;9.372;2022-12-07T04:36:27;13.20;;;11.33;;
15831;SDS011;8016;49.928;9.372;2022-12-07T04:38:54;20.03;;;13.53;;
15831;SDS011;8016;49.928;9.372;2022-12-07T04:41:20;13.67;;;11.23;;
15831;SDS011;8016;49.928;9.372;2022-12-07T04:43:56;19.03;;;14.23;;
15831;SDS011;8016;49.928;9.372;2022-12-07T04:46:22;17.73;;;12.70;;
15831;SDS011;8016;49.928;9.372;2022-12-07T04:48:49;14.83;;;10.60;;
15831;SDS011;8016;49.928;9.372;2022-12-07T04:51:19;16.90;;;11.93;;
15831;SDS011;8016;49.928;9.372;2022-12-07T04:53:45;13.00;;;10.40;;
15831;SDS011;8016;49.928;9.372;2022-12-07T04:56:11;13.00;;;9.97;;
15831;SDS011;8016;49.928;9.372;2022-12-07T04:58:37;15.77;;;11.20;;
15831;SDS011;8016;49.928;9.372;2022-12-07T05:01:03;14.97;;;10.60;;
15831;SDS011;8016;49.928;9.372;2022-12-07T05:03:29;14.57;;;10.77;;
15831;SDS011;8016;49.928;9.372;2022-12-07T05:05:55;18.03;;;12.87;;
15831;SDS011;8016;49.928;9.372;2022-12-07T05:08:21;13.93;;;10.87;;
15831;SDS011;8016;49.928;9.372;2022-12-07T05:10:48;16.23;;;11.93;;
15831;SDS011;8016;49.928;9.372;2022-12-07T05:13:14;13.27;;;11.50;;
15831;SDS011;8016;49.928;9.372;2022-12-07T05:15:40;11.40;;;9.03;;
15831;SDS011;8016;49.928;9.372;2022-12-07T05:18:07;12.50;;;10.37;;
15831;SDS011;8016;49.928;9.372;2022-12-07T05:20:34;14.03;;;10.27;;
15831;SDS011;8016;49.928;9.372;2022-12-07T05:22:59;14.37;;;10.80;;
15831;SDS011;8016;49.928;9.372;2022-12-07T05:25:25;13.73;;;10.60;;
15831;SDS011;8016;49.928;9.372;2022-12-07T05:27:51;15.17;;;11.23;;
15831;SDS011;8016;49.928;9.372;2022-12-07T05:30:17;15.70;;;11.20;;
15831;SDS011;8016;49.928;9.372;2022-12-07T05:32:43;12.63;;;10.50;;
15831;SDS011;8016;49.928;9.372;2022-12-07T05:35:09;14.90;;;11.80;;
15831;SDS011;8016;49.928;9.372;2022-12-07T05:37:35;14.70;;;11.40;;
15831;SDS011;8016;49.928;9.372;2022-12-07T05:40:02;13.70;;;10.83;;
15831;SDS011;8016;49.928;9.372;2022-12-07T05:42:28;15.47;;;11.53;;
15831;SDS011;8016;49.928;9.372;2022-12-07T05:44:54;15.23;;;11.20;;
15831;SDS011;8016;49.928;9.372;2022-12-07T05:47:20;18.10;;;11.87;;
15831;SDS011;8016;49.928;9.372;2022-12-07T05:49:46;16.00;;;12.40;;
15831;SDS011;8016;49.928;9.372;2022-12-07T05:52:12;13.77;;;10.50;;
15831;SDS011;8016;49.928;9.372;2022-12-07T05:54:38;14.90;;;10.77;;
15831;SDS011;8016;49.928;9.372;2022-12-07T05:57:04;15.83;;;11.87;;
15831;SDS011;8016;49.928;9.372;2022-12-07T05:59:29;13.70;;;11.53;;
15831;SDS011;8016;49.928;9.372;2022-12-07T06:02:00;14.33;;;11.13;;
15831;SDS011;8016;49.928;9.372;2022-12-07T06:04:28;13.83;;;10.53;;
15831;SDS011;8016;49.928;9.372;2022-12-07T06:06:54;18.80;;;13.33;;
15831;SDS011;8016;49.928;9.372;2022-12-07T06:09:21;15.27;;;12.33;;
15831;SDS011;8016;49.928;9.372;2022-12-07T06:11:47;15.50;;;11.63;;
15831;SDS011;8016;49.928;9.372;2022-12-07T06:14:31;15.13;;;11.80;;
15831;SDS011;8016;49.928;9.372;2022-12-07T06:16:58;14.70;;;12.37;;
15831;SDS011;8016;49.928;9.372;2022-12-07T06:19:24;19.87;;;13.33;;
15831;SDS011;8016;49.928;9.372;2022-12-07T06:21:50;14.97;;;12.40;;
15831;SDS011;8016;49.928;9.372;2022-12-07T06:24:16;15.00;;;11.87;;
15831;SDS011;8016;49.928;9.372;2022-12-07T06:26:43;13.43;;;11.20;;
15831;SDS011;8016;49.928;9.372;2022-12-07T06:29:09;14.10;;;11.80;;
15831;SDS011;8016;49.928;9.372;2022-12-07T06:31:36;20.13;;;13.37;;
15831;SDS011;8016;49.928;9.372;2022-12-07T06:34:03;16.97;;;12.60;;
15831;SDS011;8016;49.928;9.372;2022-12-07T06:36:30;24.97;;;16.23;;
15831;SDS011;8016;49.928;9.372;2022-12-07T06:38:56;21.70;;;16.03;;
15831;SDS011;8016;49.928;9.372;2022-12-07T06:41:22;19.23;;;14.57;;
15831;SDS011;8016;49.928;9.372;2022-12-07T06:43:48;18.07;;;14.10;;
15831;SDS011;8016;49.928;9.372;2022-12-07T06:46:14;14.80;;;11.87;;
15831;SDS011;8016;49.928;9.372;2022-12-07T06:48:41;16.87;;;12.73;;
15831;SDS011;8016;49.928;9.372;2022-12-07T06:51:07;14.97;;;12.40;;
15831;SDS011;8016;49.928;9.372;2022-12-07T06:53:33;14.97;;;11.83;;
15831;SDS011;8016;49.928;9.372;2022-12-07T06:55:59;14.63;;;11.83;;
15831;SDS011;8016;49.928;9.372;2022-12-07T06:58:25;14.87;;;12.20;;
15831;SDS011;8016;49.928;9.372;2022-12-07T07:00:51;14.77;;;10.93;;
15831;SDS011;8016;49.928;9.372;2022-12-07T07:03:17;18.90;;;13.03;;
15831;SDS011;8016;49.928;9.372;2022-12-07T07:05:43;12.83;;;11.00;;
15831;SDS011;8016;49.928;9.372;2022-12-07T07:08:10;14.73;;;12.00;;
15831;SDS011;8016;49.928;9.372;2022-12-07T07:10:36;15.67;;;11.57;;
15831;SDS011;8016;49.928;9.372;2022-12-07T07:13:02;16.10;;;12.27;;
15831;SDS011;8016;49.928;9.372;2022-12-07T07:15:29;15.20;;;13.60;;
15831;SDS011;8016;49.928;9.372;2022-12-07T07:17:55;15.23;;;11.60;;
15831;SDS011;8016;49.928;9.372;2022-12-07T07:20:21;15.83;;;12.00;;
15831;SDS011;8016;49.928;9.372;2022-12-07T07:22:47;15.13;;;11.50;;
15831;SDS011;8016;49.928;9.372;2022-12-07T07:25:13;15.13;;;12.70;;
15831;SDS011;8016;49.928;9.372;2022-12-07T07:27:39;13.10;;;11.33;;
15831;SDS011;8016;49.928;9.372;2022-12-07T07:30:05;13.37;;;11.63;;
15831;SDS011;8016;49.928;9.372;2022-12-07T07:32:31;13.93;;;12.00;;
15831;SDS011;8016;49.928;9.372;2022-12-07T07:34:57;13.93;;;11.03;;
15831;SDS011;8016;49.928;9.372;2022-12-07T07:37:24;14.03;;;11.27;;
15831;SDS011;8016;49.928;9.372;2022-12-07T07:39:50;13.13;;;11.50;;
15831;SDS011;8016;49.928;9.372;2022-12-07T07:42:16;15.37;;;11.90;;
15831;SDS011;8016;49.928;9.372;2022-12-07T07:44:43;15.23;;;12.83;;
15831;SDS011;8016;49.928;9.372;2022-12-07T07:47:09;18.03;;;13.73;;
15831;SDS011;8016;49.928;9.372;2022-12-07T07:49:35;15.00;;;12.40;;
15831;SDS011;8016;49.928;9.372;2022-12-07T07:52:01;17.57;;;14.33;;
15831;SDS011;8016;49.928;9.372;2022-12-07T07:54:27;18.53;;;13.57;;
15831;SDS011;8016;49.928;9.372;2022-12-07T07:56:53;22.40;;;17.97;;
15831;SDS011;8016;49.928;9.372;2022-12-07T07:59:19;17.10;;;13.77;;
15831;SDS011;8016;49.928;9.372;2022-12-07T08:01:45;14.50;;;12.87;;
15831;SDS011;8016;49.928;9.372;2022-12-07T08:04:11;12.80;;;11.20;;
15831;SDS011;8016;49.928;9.372;2022-12-07T08:06:36;13.53;;;11.50;;
15831;SDS011;8016;49.928;9.372;2022-12-07T08:09:02;17.63;;;14.63;;
15831;SDS011;8016;49.928;9.372;2022-12-07T08:11:30;25.47;;;19.63;;
15831;SDS011;8016;49.928;9.372;2022-12-07T08:13:56;14.60;;;12.30;;
15831;SDS011;8016;49.928;9.372;2022-12-07T08:16:22;15.03;;;12.40;;
15831;SDS011;8016;49.928;9.372;2022-12-07T08:18:48;14.70;;;11.40;;
15831;SDS011;8016;49.928;9.372;2022-12-07T08:21:14;16.87;;;13.60;;
15831;SDS011;8016;49.928;9.372;2022-12-07T08:23:41;13.47;;;11.27;;
15831;SDS011;8016;49.928;9.372;2022-12-07T08:26:08;16.93;;;13.20;;
15831;SDS011;8016;49.928;9.372;2022-12-07T08:28:35;17.83;;;15.13;;
15831;SDS011;8016;49.928;9.372;2022-12-07T08:31:01;23.30;;;17.07;;
15831;SDS011;8016;49.928;9.372;2022-12-07T08:33:28;21.03;;;16.93;;
15831;SDS011;8016;49.928;9.372;2022-12-07T08:35:54;36.67;;;26.23;;
15831;SDS011;8016;49.928;9.372;2022-12-07T08:38:20;24.63;;;17.67;;
15831;SDS011;8016;49.928;9.372;2022-12-07T08:40:58;16.63;;;12.73;;
15831;SDS011;8016;49.928;9.372;2022-12-07T08:43:24;20.53;;;16.20;;
15831;SDS011;8016;49.928;9.372;2022-12-07T08:46:03;14.93;;;12.63;;
15831;SDS011;8016;49.928;9.372;2022-12-07T08:48:30;14.93;;;11.23;;
15831;SDS011;8016;49.928;9.372;2022-12-07T08:50:56;13.80;;;10.40;;
15831;SDS011;8016;49.928;9.372;2022-12-07T08:53:23;13.90;;;11.60;;
15831;SDS011;8016;49.928;9.372;2022-12-07T08:55:49;12.73;;;11.23;;
15831;SDS011;8016;49.928;9.372;2022-12-07T08:58:15;12.07;;;10.43;;
15831;SDS011;8016;49.928;9.372;2022-12-07T09:00:41;13.43;;;11.83;;
15831;SDS011;8016;49.928;9.372;2022-12-07T09:03:07;13.53;;;10.43;;
15831;SDS011;8016;49.928;9.372;2022-12-07T09:05:33;14.10;;;10.80;;
15831;SDS011;8016;49.928;9.372;2022-12-07T09:08:00;12.50;;;10.60;;
15831;SDS011;8016;49.928;9.372;2022-12-07T09:10:26;12.10;;;10.07;;
15831;SDS011;8016;49.928;9.372;2022-12-07T09:12:52;12.17;;;10.70;;
15831;SDS011;8016;49.928;9.372;2022-12-07T09:15:18;12.60;;;10.43;;
15831;SDS011;8016;49.928;9.372;2022-12-07T09:17:44;12.90;;;10.93;;
15831;SDS011;8016;49.928;9.372;2022-12-07T09:20:10;12.93;;;10.67;;
15831;SDS011;8016;49.928;9.372;2022-12-07T09:22:36;11.93;;;10.70;;
15831;SDS011;8016;49.928;9.372;2022-12-07T09:25:02;12.07;;;10.60;;
15831;SDS011;8016;49.928;9.372;2022-12-07T09:27:29;11.93;;;10.70;;
15831;SDS011;8016;49.928;9.372;2022-12-07T09:29:55;14.87;;;10.83;;
15831;SDS011;8016;49.928;9.372;2022-12-07T09:32:20;20.60;;;15.43;;
15831;SDS011;8016;49.928;9.372;2022-12-07T09:34:46;12.57;;;10.40;;
15831;SDS011;8016;49.928;9.372;2022-12-07T09:37:12;11.83;;;10.17;;
15831;SDS011;8016;49.928;9.372;2022-12-07T09:39:38;12.10;;;10.37;;
15831;SDS011;8016;49.928;9.372;2022-12-07T09:42:05;11.87;;;9.60;;
15831;SDS011;8016;49.928;9.372;2022-12-07T09:44:32;11.33;;;10.13;;
15831;SDS011;8016;49.928;9.372;2022-12-07T09:46:58;11.73;;;9.90;;
15831;SDS011;8016;49.928;9.372;2022-12-07T09:49:24;11.23;;;9.80;;
15831;SDS011;8016;49.928;9.372;2022-12-07T09:52:02;15.20;;;11.20;;
15831;SDS011;8016;49.928;9.372;2022-12-07T09:54:29;11.90;;;9.43;;
15831;SDS011;8016;49.928;9.372;2022-12-07T09:56:55;13.93;;;12.43;;
15831;SDS011;8016;49.928;9.372;2022-12-07T09:59:21;13.10;;;11.70;;
15831;SDS011;8016;49.928;9.372;2022-12-07T10:01:48;16.23;;;13.10;;
15831;SDS011;8016;49.928;9.372;2022-12-07T10:04:16;17.20;;;15.10;;
15831;SDS011;8016;49.928;9.372;2022-12-07T10:06:43;12.50;;;9.67;;
15831;SDS011;8016;49.928;9.372;2022-12-07T10:09:14;11.93;;;10.57;;
15831;SDS011;8016;49.928;9.372;2022-12-07T10:14:24;13.43;;;11.40;;
15831;SDS011;8016;49.928;9.372;2022-12-07T10:16:52;23.77;;;19.10;;
15831;SDS011;8016;49.928;9.372;2022-12-07T10:19:29;19.97;;;15.30;;
15831;SDS011;8016;49.928;9.372;2022-12-07T10:24:36;19.00;;;14.60;;
15831;SDS011;8016;49.928;9.372;2022-12-07T10:27:04;21.27;;;16.90;;
15831;SDS011;8016;49.928;9.372;2022-12-07T10:29:32;25.77;;;19.87;;
15831;SDS011;8016;49.928;9.372;2022-12-07T10:32:00;21.27;;;17.07;;
15831;SDS011;8016;49.928;9.372;2022-12-07T10:34:27;38.67;;;29.03;;
15831;SDS011;8016;49.928;9.372;2022-12-07T10:37:06;41.43;;;33.90;;
15831;SDS011;8016;49.928;9.372;2022-12-07T10:39:40;29.93;;;24.87;;
15831;SDS011;8016;49.928;9.372;2022-12-07T10:42:09;13.33;;;10.63;;
15831;SDS011;8016;49.928;9.372;2022-12-07T10:44:41;16.17;;;14.43;;
15831;SDS011;8016;49.928;9.372;2022-12-07T10:52:09;11.47;;;10.27;;
15831;SDS011;8016;49.928;9.372;2022-12-07T10:54:40;12.23;;;10.53;;
15831;SDS011;8016;49.928;9.372;2022-12-07T10:59:41;10.93;;;7.60;;
15831;SDS011;8016;49.928;9.372;2022-12-07T11:07:38;9.10;;;7.83;;
15831;SDS011;8016;49.928;9.372;2022-12-07T11:10:18;11.13;;;7.20;;
15831;SDS011;8016;49.928;9.372;2022-12-07T11:15:24;8.97;;;7.93;;
15831;SDS011;8016;49.928;9.372;2022-12-07T11:20:26;9.10;;;7.30;;
15831;SDS011;8016;49.928;9.372;2022-12-07T11:23:02;10.07;;;7.90;;
15831;SDS011;8016;49.928;9.372;2022-12-07T11:28:18;8.90;;;7.87;;
15831;SDS011;8016;49.928;9.372;2022-12-07T11:30:50;12.90;;;7.93;;
15831;SDS011;8016;49.928;9.372;2022-12-07T11:33:26;9.63;;;7.80;;
15831;SDS011;8016;49.928;9.372;2022-12-07T11:38:38;10.27;;;8.40;;
15831;SDS011;8016;49.928;9.372;2022-12-07T11:41:08;9.33;;;7.40;;
15831;SDS011;8016;49.928;9.372;2022-12-07T11:43:37;9.17;;;7.30;;
15831;SDS011;8016;49.928;9.372;2022-12-07T11:46:12;9.70;;;8.33;;
15831;SDS011;8016;49.928;9.372;2022-12-07T11:51:28;12.67;;;9.20;;
15831;SDS011;8016;49.928;9.372;2022-12-07T11:54:02;11.27;;;9.83;;
15831;SDS011;8016;49.928;9.372;2022-12-07T11:56:29;13.93;;;10.27;;
15831;SDS011;8016;49.928;9.372;2022-12-07T12:01:53;15.83;;;11.77;;
15831;SDS011;8016;49.928;9.372;2022-12-07T12:04:29;12.80;;;9.10;;
15831;SDS011;8016;49.928;9.372;2022-12-07T12:06:57;12.20;;;8.73;;
15831;SDS011;8016;49.928;9.372;2022-12-07T12:09:30;12.30;;;9.10;;
15831;SDS011;8016;49.928;9.372;2022-12-07T12:12:15;8.73;;;7.80;;
15831;SDS011;8016;49.928;9.372;2022-12-07T12:14:48;8.70;;;7.57;;
15831;SDS011;8016;49.928;9.372;2022-12-07T12:17:40;9.30;;;7.80;;
15831;SDS011;8016;49.928;9.372;2022-12-07T12:20:20;10.90;;;8.07;;
15831;SDS011;8016;49.928;9.372;2022-12-07T12:23:04;9.03;;;7.10;;
15831;SDS011;8016;49.928;9.372;2022-12-07T12:25:35;11.03;;;8.37;;
15831;SDS011;8016;49.928;9.372;2022-12-07T12:28:02;13.13;;;8.17;;
15831;SDS011;8016;49.928;9.372;2022-12-07T12:32:54;9.30;;;7.40;;
15831;SDS011;8016;49.928;9.372;2022-12-07T12:35:34;8.93;;;7.40;;
15831;SDS011;8016;49.928;9.372;2022-12-07T12:40:45;7.40;;;6.60;;
15831;SDS011;8016;49.928;9.372;2022-12-07T12:46:38;16.83;;;11.13;;
15831;SDS011;8016;49.928;9.372;2022-12-07T12:48:44;10.40;;;8.57;;
15831;SDS011;8016;49.928;9.372;2022-12-07T12:51:35;10.67;;;7.63;;
15831;SDS011;8016;49.928;9.372;2022-12-07T12:54:05;9.83;;;8.50;;
15831;SDS011;8016;49.928;9.372;2022-12-07T12:56:39;17.00;;;13.87;;
15831;SDS011;8016;49.928;9.372;2022-12-07T13:01:43;9.03;;;7.10;;
15831;SDS011;8016;49.928;9.372;2022-12-07T13:04:25;9.53;;;8.00;;
15831;SDS011;8016;49.928;9.372;2022-12-07T13:06:52;8.37;;;6.40;;
15831;SDS011;8016;49.928;9.372;2022-12-07T13:09:23;8.13;;;6.83;;
15831;SDS011;8016;49.928;9.372;2022-12-07T13:11:50;11.23;;;6.90;;
15831;SDS011;8016;49.928;9.372;2022-12-07T13:17:12;9.00;;;7.68;;
15831;SDS011;8016;49.928;9.372;2022-12-07T13:24:59;7.33;;;6.03;;
15831;SDS011;8016;49.928;9.372;2022-12-07T13:27:28;7.07;;;6.23;;
15831;SDS011;8016;49.928;9.372;2022-12-07T13:29:56;7.93;;;6.37;;
15831;SDS011;8016;49.928;9.372;2022-12-07T13:32:23;10.10;;;7.07;;
15831;SDS011;8016;49.928;9.372;2022-12-07T13:34:50;8.03;;;6.57;;
15831;SDS011;8016;49.928;9.372;2022-12-07T13:37:28;8.23;;;6.33;;
15831;SDS011;8016;49.928;9.372;2022-12-07T13:39:56;9.17;;;6.27;;
15831;SDS011;8016;49.928;9.372;2022-12-07T13:42:32;11.67;;;7.93;;
15831;SDS011;8016;49.928;9.372;2022-12-07T13:44:59;7.97;;;6.37;;
15831;SDS011;8016;49.928;9.372;2022-12-07T13:47:34;6.77;;;6.07;;
15831;SDS011;8016;49.928;9.372;2022-12-07T13:50:01;11.73;;;8.00;;
15831;SDS011;8016;49.928;9.372;2022-12-07T13:52:28;7.57;;;6.37;;
15831;SDS011;8016;49.928;9.372;2022-12-07T13:57:20;8.90;;;6.00;;
15831;SDS011;8016;49.928;9.372;2022-12-07T13:59:47;7.93;;;6.70;;
15831;SDS011;8016;49.928;9.372;2022-12-07T14:02:53;9.10;;;6.30;;
15831;SDS011;8016;49.928;9.372;2022-12-07T14:05:24;8.90;;;5.90;;
15831;SDS011;8016;49.928;9.372;2022-12-07T14:07:55;11.27;;;6.70;;
15831;SDS011;8016;49.928;9.372;2022-12-07T14:10:23;5.73;;;5.20;;
15831;SDS011;8016;49.928;9.372;2022-12-07T14:12:49;9.17;;;7.10;;
15831;SDS011;8016;49.928;9.372;2022-12-07T14:15:36;9.13;;;6.27;;
15831;SDS011;8016;49.928;9.372;2022-12-07T14:18:02;8.80;;;7.90;;
15831;SDS011;8016;49.928;9.372;2022-12-07T14:20:36;16.57;;;12.83;;
15831;SDS011;8016;49.928;9.372;2022-12-07T14:23:03;15.97;;;11.80;;
15831;SDS011;8016;49.928;9.372;2022-12-07T14:28:24;9.53;;;6.87;;
15831;SDS011;8016;49.928;9.372;2022-12-07T14:30:50;9.07;;;6.43;;
15831;SDS011;8016;49.928;9.372;2022-12-07T14:33:16;7.33;;;5.87;;
15831;SDS011;8016;49.928;9.372;2022-12-07T14:35:43;8.00;;;6.00;;
15831;SDS011;8016;49.928;9.372;2022-12-07T14:38:09;7.37;;;6.03;;
15831;SDS011;8016;49.928;9.372;2022-12-07T14:40:35;11.23;;;7.43;;
15831;SDS011;8016;49.928;9.372;2022-12-07T14:43:02;8.93;;;7.93;;
15831;SDS011;8016;49.928;9.372;2022-12-07T14:45:28;10.83;;;7.00;;
15831;SDS011;8016;49.928;9.372;2022-12-07T14:47:54;6.97;;;5.73;;
15831;SDS011;8016;49.928;9.372;2022-12-07T14:50:20;9.37;;;6.60;;
15831;SDS011;8016;49.928;9.372;2022-12-07T14:52:50;9.47;;;8.47;;
15831;SDS011;8016;49.928;9.372;2022-12-07T14:55:24;5.70;;;4.30;;
15831;SDS011;8016;49.928;9.372;2022-12-07T14:57:51;3.07;;;2.77;;
15831;SDS011;8016;49.928;9.372;2022-12-07T15:00:17;4.73;;;4.17;;
15831;SDS011;8016;49.928;9.372;2022-12-07T15:02:44;4.10;;;3.70;;
15831;SDS011;8016;49.928;9.372;2022-12-07T15:05:11;5.90;;;4.37;;
15831;SDS011;8016;49.928;9.372;2022-12-07T15:07:37;4.40;;;3.80;;
15831;SDS011;8016;49.928;9.372;2022-12-07T15:10:03;6.17;;;4.97;;
15831;SDS011;8016;49.928;9.372;2022-12-07T15:12:29;17.87;;;9.50;;
15831;SDS011;8016;49.928;9.372;2022-12-07T15:14:55;10.53;;;7.60;;
15831;SDS011;8016;49.928;9.372;2022-12-07T15:17:21;16.30;;;8.00;;
15831;SDS011;8016;49.928;9.372;2022-12-07T15:19:47;48.17;;;23.83;;
15831;SDS011;8016;49.928;9.372;2022-12-07T15:22:13;29.97;;;17.47;;
15831;SDS011;8016;49.928;9.372;2022-12-07T15:24:39;22.13;;;13.00;;
15831;SDS011;8016;49.928;9.372;2022-12-07T15:27:05;12.83;;;9.40;;
15831;SDS011;8016;49.928;9.372;2022-12-07T15:29:31;14.40;;;8.97;;
15831;SDS011;8016;49.928;9.372;2022-12-07T15:31:57;9.53;;;7.63;;
15831;SDS011;8016;49.928;9.372;2022-12-07T15:34:26;11.87;;;7.70;;
15831;SDS011;8016;49.928;9.372;2022-12-07T15:36:53;8.07;;;5.93;;
15831;SDS011;8016;49.928;9.372;2022-12-07T15:39:19;6.53;;;4.97;;
15831;SDS011;8016;49.928;9.372;2022-12-07T15:41:46;6.07;;;4.57;;
15831;SDS011;8016;49.928;9.372;2022-12-07T15:44:12;4.83;;;4.40;;
15831;SDS011;8016;49.928;9.372;2022-12-07T15:46:57;5.13;;;4.60;;
15831;SDS011;8016;49.928;9.372;2022-12-07T15:49:23;9.03;;;6.77;;
15831;SDS011;8016;49.928;9.372;2022-12-07T15:51:49;25.00;;;16.03;;
15831;SDS011;8016;49.928;9.372;2022-12-07T15:54:25;17.83;;;10.80;;
15831;SDS011;8016;49.928;9.372;2022-12-07T15:56:51;9.17;;;6.40;;
15831;SDS011;8016;49.928;9.372;2022-12-07T15:59:17;9.07;;;6.83;;
15831;SDS011;8016;49.928;9.372;2022-12-07T16:01:43;8.17;;;5.17;;
15831;SDS011;8016;49.928;9.372;2022-12-07T16:04:09;12.23;;;7.17;;
15831;SDS011;8016;49.928;9.372;2022-12-07T16:06:35;7.53;;;6.00;;